Tonkawa, Oklahoma
Current Conditions -  °F | °C
As of 6:35 AM on Thursday 18 Dec 2014 (Local Time) from KBKN Reporting Station
Moderate Fog Moderate Fog  
Wind Chill: 32°   Ceiling: 300
Heat Index: 36°   Visibility: 0.5mi
Dew Point: 36°   Wind: 5mph
Humidity: 100%   Direction: 100°E
Pressure: 30.14"   Gusts: NA
Location:  36.68°N, 97.31°W
Report Text: KBKN 181235Z AUTO 10004KT 1/2SM FG OVC003 02/02 A3014 RMK AO2 LTG DSNT N
Loading
Personal Weather Stations






























Interactive Weather Map New forecast layout! Learn more

10-Day Weather Forecast

Advertisements
Track Severe Weather on mobile